sensor_id;sensor_type;location;lat;lon;timestamp;P1;durP1;ratioP1;P2;durP2;ratioP2
55015;SDS011;40919;43.236;21.590;2023-03-14T00:01:22;101.90;;;63.97;;
55015;SDS011;40919;43.236;21.590;2023-03-14T00:03:49;71.70;;;43.65;;
55015;SDS011;40919;43.236;21.590;2023-03-14T00:06:15;59.08;;;34.83;;
55015;SDS011;40919;43.236;21.590;2023-03-14T00:08:41;53.35;;;31.77;;
55015;SDS011;40919;43.236;21.590;2023-03-14T00:11:09;55.13;;;36.40;;
55015;SDS011;40919;43.236;21.590;2023-03-14T00:13:37;52.63;;;34.67;;
55015;SDS011;40919;43.236;21.590;2023-03-14T00:16:07;48.88;;;31.65;;
55015;SDS011;40919;43.236;21.590;2023-03-14T00:18:35;45.17;;;28.33;;
55015;SDS011;40919;43.236;21.590;2023-03-14T00:21:02;115.90;;;54.95;;
55015;SDS011;40919;43.236;21.590;2023-03-14T00:23:29;128.70;;;66.68;;
55015;SDS011;40919;43.236;21.590;2023-03-14T00:26:02;110.38;;;56.70;;
55015;SDS011;40919;43.236;21.590;2023-03-14T00:28:32;100.97;;;52.95;;
55015;SDS011;40919;43.236;21.590;2023-03-14T00:30:59;81.15;;;46.22;;
55015;SDS011;40919;43.236;21.590;2023-03-14T00:33:27;92.20;;;51.63;;
55015;SDS011;40919;43.236;21.590;2023-03-14T00:35:56;128.50;;;66.57;;
55015;SDS011;40919;43.236;21.590;2023-03-14T00:38:24;140.35;;;69.05;;
55015;SDS011;40919;43.236;21.590;2023-03-14T00:40:51;153.65;;;81.10;;
55015;SDS011;40919;43.236;21.590;2023-03-14T00:43:17;140.25;;;78.15;;
55015;SDS011;40919;43.236;21.590;2023-03-14T00:45:43;129.68;;;75.00;;
55015;SDS011;40919;43.236;21.590;2023-03-14T00:48:09;155.50;;;86.55;;
55015;SDS011;40919;43.236;21.590;2023-03-14T00:50:35;119.93;;;66.28;;
55015;SDS011;40919;43.236;21.590;2023-03-14T00:53:01;85.60;;;48.53;;
55015;SDS011;40919;43.236;21.590;2023-03-14T00:55:27;63.00;;;36.63;;
55015;SDS011;40919;43.236;21.590;2023-03-14T00:57:52;62.50;;;36.15;;
55015;SDS011;40919;43.236;21.590;2023-03-14T01:00:18;53.83;;;33.25;;
55015;SDS011;40919;43.236;21.590;2023-03-14T01:02:44;70.63;;;41.03;;
55015;SDS011;40919;43.236;21.590;2023-03-14T01:05:09;67.65;;;42.67;;
55015;SDS011;40919;43.236;21.590;2023-03-14T01:07:36;69.35;;;41.55;;
55015;SDS011;40919;43.236;21.590;2023-03-14T01:10:02;57.92;;;32.38;;
55015;SDS011;40919;43.236;21.590;2023-03-14T01:12:29;49.33;;;32.20;;
55015;SDS011;40919;43.236;21.590;2023-03-14T01:14:56;47.67;;;31.08;;
55015;SDS011;40919;43.236;21.590;2023-03-14T01:17:21;58.25;;;32.97;;
55015;SDS011;40919;43.236;21.590;2023-03-14T01:19:47;49.72;;;31.85;;
55015;SDS011;40919;43.236;21.590;2023-03-14T01:22:13;64.97;;;37.67;;
55015;SDS011;40919;43.236;21.590;2023-03-14T01:24:38;77.80;;;43.00;;
55015;SDS011;40919;43.236;21.590;2023-03-14T01:27:04;88.00;;;48.22;;
55015;SDS011;40919;43.236;21.590;2023-03-14T01:29:30;93.43;;;51.10;;
55015;SDS011;40919;43.236;21.590;2023-03-14T01:31:56;104.88;;;56.22;;
55015;SDS011;40919;43.236;21.590;2023-03-14T01:34:21;148.88;;;70.57;;
55015;SDS011;40919;43.236;21.590;2023-03-14T01:36:47;76.32;;;44.40;;
55015;SDS011;40919;43.236;21.590;2023-03-14T01:39:13;80.70;;;46.30;;
55015;SDS011;40919;43.236;21.590;2023-03-14T01:41:39;72.05;;;41.90;;
55015;SDS011;40919;43.236;21.590;2023-03-14T01:44:08;57.92;;;32.97;;
55015;SDS011;40919;43.236;21.590;2023-03-14T01:46:44;57.67;;;32.25;;
55015;SDS011;40919;43.236;21.590;2023-03-14T01:54:39;56.20;;;34.05;;
55015;SDS011;40919;43.236;21.590;2023-03-14T01:57:08;59.30;;;36.72;;
55015;SDS011;40919;43.236;21.590;2023-03-14T01:59:42;53.08;;;32.38;;
55015;SDS011;40919;43.236;21.590;2023-03-14T02:02:12;62.30;;;37.25;;
55015;SDS011;40919;43.236;21.590;2023-03-14T02:04:40;62.13;;;38.10;;
55015;SDS011;40919;43.236;21.590;2023-03-14T02:10:10;41.55;;;28.27;;
55015;SDS011;40919;43.236;21.590;2023-03-14T02:12:36;48.95;;;27.33;;
55015;SDS011;40919;43.236;21.590;2023-03-14T02:15:03;47.60;;;29.75;;
55015;SDS011;40919;43.236;21.590;2023-03-14T02:17:29;51.10;;;30.95;;
55015;SDS011;40919;43.236;21.590;2023-03-14T02:22:48;82.78;;;43.90;;
55015;SDS011;40919;43.236;21.590;2023-03-14T02:27:59;53.10;;;32.50;;
55015;SDS011;40919;43.236;21.590;2023-03-14T02:30:27;43.95;;;28.90;;
55015;SDS011;40919;43.236;21.590;2023-03-14T02:32:59;49.97;;;32.70;;
55015;SDS011;40919;43.236;21.590;2023-03-14T02:35:45;53.78;;;34.25;;
55015;SDS011;40919;43.236;21.590;2023-03-14T02:38:55;66.85;;;40.30;;
55015;SDS011;40919;43.236;21.590;2023-03-14T02:41:18;95.65;;;54.72;;
55015;SDS011;40919;43.236;21.590;2023-03-14T02:43:44;99.57;;;56.30;;
55015;SDS011;40919;43.236;21.590;2023-03-14T02:46:10;109.90;;;61.33;;
55015;SDS011;40919;43.236;21.590;2023-03-14T02:49:23;98.32;;;52.20;;
55015;SDS011;40919;43.236;21.590;2023-03-14T02:51:28;118.03;;;61.40;;
55015;SDS011;40919;43.236;21.590;2023-03-14T02:53:55;117.28;;;67.45;;
55015;SDS011;40919;43.236;21.590;2023-03-14T02:56:20;94.40;;;50.55;;
55015;SDS011;40919;43.236;21.590;2023-03-14T02:58:46;67.57;;;40.08;;
55015;SDS011;40919;43.236;21.590;2023-03-14T03:01:12;67.22;;;37.28;;
55015;SDS011;40919;43.236;21.590;2023-03-14T03:03:38;66.65;;;35.90;;
55015;SDS011;40919;43.236;21.590;2023-03-14T03:06:03;48.97;;;28.58;;
55015;SDS011;40919;43.236;21.590;2023-03-14T03:08:29;39.45;;;25.08;;
55015;SDS011;40919;43.236;21.590;2023-03-14T03:10:56;55.58;;;33.63;;
55015;SDS011;40919;43.236;21.590;2023-03-14T03:13:22;58.67;;;30.63;;
55015;SDS011;40919;43.236;21.590;2023-03-14T03:15:48;56.17;;;32.38;;
55015;SDS011;40919;43.236;21.590;2023-03-14T03:18:14;66.60;;;33.95;;
55015;SDS011;40919;43.236;21.590;2023-03-14T03:20:40;71.97;;;40.55;;
55015;SDS011;40919;43.236;21.590;2023-03-14T03:23:06;96.25;;;48.65;;
55015;SDS011;40919;43.236;21.590;2023-03-14T03:25:32;103.75;;;47.95;;
55015;SDS011;40919;43.236;21.590;2023-03-14T03:27:58;83.53;;;46.63;;
55015;SDS011;40919;43.236;21.590;2023-03-14T03:30:24;78.82;;;44.78;;
55015;SDS011;40919;43.236;21.590;2023-03-14T03:32:50;93.80;;;50.70;;
55015;SDS011;40919;43.236;21.590;2023-03-14T03:35:16;76.63;;;43.53;;
55015;SDS011;40919;43.236;21.590;2023-03-14T03:37:42;137.50;;;67.70;;
55015;SDS011;40919;43.236;21.590;2023-03-14T03:40:08;110.90;;;57.50;;
55015;SDS011;40919;43.236;21.590;2023-03-14T03:42:34;80.93;;;43.33;;
55015;SDS011;40919;43.236;21.590;2023-03-14T03:45:01;59.80;;;33.85;;
55015;SDS011;40919;43.236;21.590;2023-03-14T03:47:27;47.28;;;29.42;;
55015;SDS011;40919;43.236;21.590;2023-03-14T03:49:52;53.72;;;34.78;;
55015;SDS011;40919;43.236;21.590;2023-03-14T03:52:18;53.90;;;34.65;;
55015;SDS011;40919;43.236;21.590;2023-03-14T03:54:45;63.42;;;38.25;;
55015;SDS011;40919;43.236;21.590;2023-03-14T03:57:11;62.03;;;38.30;;
55015;SDS011;40919;43.236;21.590;2023-03-14T03:59:37;69.55;;;39.42;;
55015;SDS011;40919;43.236;21.590;2023-03-14T04:02:05;70.13;;;37.83;;
55015;SDS011;40919;43.236;21.590;2023-03-14T04:04:31;63.25;;;36.15;;
55015;SDS011;40919;43.236;21.590;2023-03-14T04:06:56;52.45;;;31.00;;
55015;SDS011;40919;43.236;21.590;2023-03-14T04:09:22;48.58;;;26.77;;
55015;SDS011;40919;43.236;21.590;2023-03-14T04:11:48;43.60;;;27.52;;
55015;SDS011;40919;43.236;21.590;2023-03-14T04:14:13;53.90;;;33.10;;
55015;SDS011;40919;43.236;21.590;2023-03-14T04:16:39;47.97;;;29.52;;
55015;SDS011;40919;43.236;21.590;2023-03-14T04:19:05;53.00;;;29.33;;
55015;SDS011;40919;43.236;21.590;2023-03-14T04:21:31;44.60;;;28.98;;
55015;SDS011;40919;43.236;21.590;2023-03-14T04:23:56;45.65;;;27.08;;
55015;SDS011;40919;43.236;21.590;2023-03-14T04:26:22;58.40;;;31.38;;
55015;SDS011;40919;43.236;21.590;2023-03-14T04:28:48;40.47;;;26.67;;
55015;SDS011;40919;43.236;21.590;2023-03-14T04:31:15;45.05;;;28.02;;
55015;SDS011;40919;43.236;21.590;2023-03-14T04:33:43;44.42;;;27.85;;
55015;SDS011;40919;43.236;21.590;2023-03-14T04:36:09;50.03;;;31.02;;
55015;SDS011;40919;43.236;21.590;2023-03-14T04:38:35;50.88;;;30.08;;
55015;SDS011;40919;43.236;21.590;2023-03-14T04:41:01;50.00;;;30.23;;
55015;SDS011;40919;43.236;21.590;2023-03-14T04:43:27;45.72;;;27.10;;
55015;SDS011;40919;43.236;21.590;2023-03-14T04:45:53;44.08;;;27.17;;
55015;SDS011;40919;43.236;21.590;2023-03-14T04:48:20;54.97;;;29.35;;
55015;SDS011;40919;43.236;21.590;2023-03-14T04:50:46;49.72;;;27.77;;
55015;SDS011;40919;43.236;21.590;2023-03-14T04:53:13;50.25;;;26.65;;
55015;SDS011;40919;43.236;21.590;2023-03-14T04:55:39;45.22;;;28.08;;
55015;SDS011;40919;43.236;21.590;2023-03-14T04:58:04;38.55;;;24.58;;
55015;SDS011;40919;43.236;21.590;2023-03-14T05:00:30;42.65;;;25.25;;
55015;SDS011;40919;43.236;21.590;2023-03-14T05:02:56;43.60;;;25.52;;
55015;SDS011;40919;43.236;21.590;2023-03-14T05:05:22;40.92;;;24.52;;
55015;SDS011;40919;43.236;21.590;2023-03-14T05:07:48;43.92;;;29.02;;
55015;SDS011;40919;43.236;21.590;2023-03-14T05:10:14;40.58;;;25.17;;
55015;SDS011;40919;43.236;21.590;2023-03-14T05:12:40;35.97;;;23.88;;
55015;SDS011;40919;43.236;21.590;2023-03-14T05:15:06;45.08;;;27.60;;
55015;SDS011;40919;43.236;21.590;2023-03-14T05:17:32;36.42;;;23.95;;
55015;SDS011;40919;43.236;21.590;2023-03-14T05:19:58;40.95;;;22.15;;
55015;SDS011;40919;43.236;21.590;2023-03-14T05:22:24;42.22;;;25.45;;
55015;SDS011;40919;43.236;21.590;2023-03-14T05:24:50;41.00;;;26.13;;
55015;SDS011;40919;43.236;21.590;2023-03-14T05:27:16;47.97;;;28.88;;
55015;SDS011;40919;43.236;21.590;2023-03-14T05:29:42;51.80;;;31.17;;
55015;SDS011;40919;43.236;21.590;2023-03-14T05:32:07;46.58;;;28.73;;
55015;SDS011;40919;43.236;21.590;2023-03-14T05:34:33;53.38;;;30.60;;
55015;SDS011;40919;43.236;21.590;2023-03-14T05:36:59;55.90;;;31.65;;
55015;SDS011;40919;43.236;21.590;2023-03-14T05:39:24;58.30;;;32.80;;
55015;SDS011;40919;43.236;21.590;2023-03-14T05:41:50;62.40;;;37.25;;
55015;SDS011;40919;43.236;21.590;2023-03-14T05:44:16;71.80;;;45.67;;
55015;SDS011;40919;43.236;21.590;2023-03-14T05:46:42;79.65;;;48.40;;
55015;SDS011;40919;43.236;21.590;2023-03-14T05:49:08;76.72;;;49.28;;
55015;SDS011;40919;43.236;21.590;2023-03-14T05:51:33;81.90;;;55.60;;
55015;SDS011;40919;43.236;21.590;2023-03-14T05:53:59;85.93;;;55.60;;
55015;SDS011;40919;43.236;21.590;2023-03-14T05:56:25;90.88;;;56.38;;
55015;SDS011;40919;43.236;21.590;2023-03-14T05:58:50;74.07;;;49.45;;
55015;SDS011;40919;43.236;21.590;2023-03-14T06:01:16;68.05;;;42.78;;
55015;SDS011;40919;43.236;21.590;2023-03-14T06:03:42;64.82;;;38.60;;
55015;SDS011;40919;43.236;21.590;2023-03-14T06:06:08;64.57;;;37.20;;
55015;SDS011;40919;43.236;21.590;2023-03-14T06:08:33;56.38;;;36.95;;
55015;SDS011;40919;43.236;21.590;2023-03-14T06:10:59;66.45;;;39.00;;
55015;SDS011;40919;43.236;21.590;2023-03-14T06:13:27;109.70;;;63.30;;
55015;SDS011;40919;43.236;21.590;2023-03-14T06:15:53;122.53;;;72.10;;
55015;SDS011;40919;43.236;21.590;2023-03-14T06:18:19;101.22;;;63.92;;
55015;SDS011;40919;43.236;21.590;2023-03-14T06:20:45;163.43;;;74.43;;
55015;SDS011;40919;43.236;21.590;2023-03-14T06:23:10;91.22;;;49.75;;
55015;SDS011;40919;43.236;21.590;2023-03-14T06:25:36;63.40;;;38.45;;
55015;SDS011;40919;43.236;21.590;2023-03-14T06:28:02;61.75;;;38.40;;
55015;SDS011;40919;43.236;21.590;2023-03-14T06:30:28;74.70;;;48.97;;
55015;SDS011;40919;43.236;21.590;2023-03-14T06:32:54;59.85;;;38.15;;
55015;SDS011;40919;43.236;21.590;2023-03-14T06:35:20;68.03;;;42.85;;
55015;SDS011;40919;43.236;21.590;2023-03-14T06:37:46;65.38;;;41.65;;
55015;SDS011;40919;43.236;21.590;2023-03-14T06:40:12;67.90;;;41.65;;
55015;SDS011;40919;43.236;21.590;2023-03-14T06:42:43;60.85;;;39.17;;
55015;SDS011;40919;43.236;21.590;2023-03-14T06:45:09;66.90;;;47.53;;
55015;SDS011;40919;43.236;21.590;2023-03-14T06:47:35;71.13;;;44.55;;
55015;SDS011;40919;43.236;21.590;2023-03-14T06:50:03;70.05;;;45.72;;
55015;SDS011;40919;43.236;21.590;2023-03-14T06:52:29;76.18;;;47.63;;
55015;SDS011;40919;43.236;21.590;2023-03-14T06:54:55;76.55;;;48.17;;
55015;SDS011;40919;43.236;21.590;2023-03-14T06:57:21;76.60;;;50.55;;
55015;SDS011;40919;43.236;21.590;2023-03-14T06:59:47;91.97;;;56.38;;
55015;SDS011;40919;43.236;21.590;2023-03-14T07:02:12;95.03;;;57.60;;
55015;SDS011;40919;43.236;21.590;2023-03-14T07:04:38;126.35;;;72.50;;
55015;SDS011;40919;43.236;21.590;2023-03-14T07:07:04;114.18;;;72.35;;
55015;SDS011;40919;43.236;21.590;2023-03-14T07:09:30;105.40;;;65.72;;
55015;SDS011;40919;43.236;21.590;2023-03-14T07:11:57;108.72;;;68.85;;
55015;SDS011;40919;43.236;21.590;2023-03-14T07:14:22;112.72;;;71.65;;
55015;SDS011;40919;43.236;21.590;2023-03-14T07:16:48;89.32;;;60.42;;
55015;SDS011;40919;43.236;21.590;2023-03-14T07:19:14;83.50;;;51.70;;
55015;SDS011;40919;43.236;21.590;2023-03-14T07:21:39;79.45;;;48.53;;
55015;SDS011;40919;43.236;21.590;2023-03-14T07:24:05;78.40;;;49.13;;
55015;SDS011;40919;43.236;21.590;2023-03-14T07:26:31;69.10;;;43.90;;
55015;SDS011;40919;43.236;21.590;2023-03-14T07:28:57;60.33;;;39.90;;
55015;SDS011;40919;43.236;21.590;2023-03-14T07:31:23;61.65;;;40.63;;
55015;SDS011;40919;43.236;21.590;2023-03-14T07:33:49;70.00;;;44.40;;
55015;SDS011;40919;43.236;21.590;2023-03-14T07:36:15;55.75;;;36.58;;
55015;SDS011;40919;43.236;21.590;2023-03-14T07:38:40;51.00;;;33.05;;
55015;SDS011;40919;43.236;21.590;2023-03-14T07:41:06;48.90;;;31.60;;
55015;SDS011;40919;43.236;21.590;2023-03-14T07:43:32;39.78;;;28.20;;
55015;SDS011;40919;43.236;21.590;2023-03-14T07:45:58;41.90;;;26.80;;
55015;SDS011;40919;43.236;21.590;2023-03-14T07:48:24;40.00;;;27.70;;
55015;SDS011;40919;43.236;21.590;2023-03-14T07:50:52;49.13;;;29.02;;
55015;SDS011;40919;43.236;21.590;2023-03-14T07:53:19;41.38;;;28.35;;
55015;SDS011;40919;43.236;21.590;2023-03-14T07:55:45;47.15;;;31.92;;
55015;SDS011;40919;43.236;21.590;2023-03-14T07:58:11;51.17;;;32.95;;
55015;SDS011;40919;43.236;21.590;2023-03-14T08:00:37;43.15;;;28.65;;
55015;SDS011;40919;43.236;21.590;2023-03-14T08:03:03;41.90;;;29.77;;
55015;SDS011;40919;43.236;21.590;2023-03-14T08:05:29;49.70;;;32.13;;
55015;SDS011;40919;43.236;21.590;2023-03-14T08:07:55;48.88;;;30.45;;
55015;SDS011;40919;43.236;21.590;2023-03-14T08:10:20;34.67;;;23.65;;
55015;SDS011;40919;43.236;21.590;2023-03-14T08:12:56;35.72;;;24.05;;
55015;SDS011;40919;43.236;21.590;2023-03-14T08:15:23;25.63;;;18.98;;
55015;SDS011;40919;43.236;21.590;2023-03-14T08:17:49;28.13;;;17.45;;
55015;SDS011;40919;43.236;21.590;2023-03-14T08:20:23;20.65;;;14.80;;
55015;SDS011;40919;43.236;21.590;2023-03-14T08:22:51;26.02;;;15.65;;
55015;SDS011;40919;43.236;21.590;2023-03-14T08:25:17;30.58;;;19.35;;
55015;SDS011;40919;43.236;21.590;2023-03-14T08:27:42;27.45;;;17.10;;
55015;SDS011;40919;43.236;21.590;2023-03-14T08:30:09;26.17;;;17.42;;
55015;SDS011;40919;43.236;21.590;2023-03-14T08:32:37;23.63;;;16.13;;
55015;SDS011;40919;43.236;21.590;2023-03-14T08:35:03;33.45;;;22.65;;
55015;SDS011;40919;43.236;21.590;2023-03-14T08:37:33;26.45;;;17.05;;
55015;SDS011;40919;43.236;21.590;2023-03-14T08:40:00;17.23;;;12.05;;
55015;SDS011;40919;43.236;21.590;2023-03-14T08:42:30;17.50;;;11.80;;
55015;SDS011;40919;43.236;21.590;2023-03-14T08:44:55;19.40;;;13.15;;
55015;SDS011;40919;43.236;21.590;2023-03-14T08:47:21;19.27;;;12.48;;
55015;SDS011;40919;43.236;21.590;2023-03-14T08:49:47;21.08;;;14.30;;
55015;SDS011;40919;43.236;21.590;2023-03-14T08:52:12;21.60;;;14.38;;
55015;SDS011;40919;43.236;21.590;2023-03-14T08:54:41;25.75;;;17.42;;
55015;SDS011;40919;43.236;21.590;2023-03-14T08:57:08;21.27;;;14.48;;
55015;SDS011;40919;43.236;21.590;2023-03-14T08:59:33;17.83;;;11.23;;
55015;SDS011;40919;43.236;21.590;2023-03-14T09:01:59;20.23;;;12.23;;
55015;SDS011;40919;43.236;21.590;2023-03-14T09:04:28;18.92;;;11.30;;
55015;SDS011;40919;43.236;21.590;2023-03-14T09:06:54;17.35;;;11.43;;
55015;SDS011;40919;43.236;21.590;2023-03-14T09:09:20;19.33;;;10.75;;
55015;SDS011;40919;43.236;21.590;2023-03-14T09:11:47;21.92;;;12.45;;
55015;SDS011;40919;43.236;21.590;2023-03-14T09:14:13;14.05;;;8.70;;
55015;SDS011;40919;43.236;21.590;2023-03-14T09:16:38;15.57;;;9.68;;
55015;SDS011;40919;43.236;21.590;2023-03-14T09:19:04;17.92;;;9.18;;
55015;SDS011;40919;43.236;21.590;2023-03-14T09:21:30;21.15;;;10.20;;
55015;SDS011;40919;43.236;21.590;2023-03-14T09:23:56;24.90;;;13.57;;
55015;SDS011;40919;43.236;21.590;2023-03-14T09:26:22;20.55;;;10.65;;
55015;SDS011;40919;43.236;21.590;2023-03-14T09:28:48;18.38;;;9.20;;
55015;SDS011;40919;43.236;21.590;2023-03-14T09:31:14;21.35;;;11.73;;
55015;SDS011;40919;43.236;21.590;2023-03-14T09:33:40;14.30;;;9.18;;
55015;SDS011;40919;43.236;21.590;2023-03-14T09:36:05;16.45;;;9.73;;
55015;SDS011;40919;43.236;21.590;2023-03-14T09:38:32;15.90;;;9.70;;
55015;SDS011;40919;43.236;21.590;2023-03-14T09:40:59;17.15;;;9.35;;
55015;SDS011;40919;43.236;21.590;2023-03-14T09:43:31;14.35;;;8.00;;
55015;SDS011;40919;43.236;21.590;2023-03-14T09:46:00;14.60;;;7.53;;
55015;SDS011;40919;43.236;21.590;2023-03-14T09:48:29;14.68;;;7.15;;
55015;SDS011;40919;43.236;21.590;2023-03-14T09:50:57;12.23;;;7.18;;
55015;SDS011;40919;43.236;21.590;2023-03-14T09:53:30;11.95;;;6.72;;
55015;SDS011;40919;43.236;21.590;2023-03-14T09:56:04;12.98;;;6.55;;
55015;SDS011;40919;43.236;21.590;2023-03-14T09:58:43;15.80;;;8.93;;
55015;SDS011;40919;43.236;21.590;2023-03-14T10:01:14;12.45;;;6.60;;
55015;SDS011;40919;43.236;21.590;2023-03-14T10:03:43;14.95;;;7.88;;
55015;SDS011;40919;43.236;21.590;2023-03-14T10:06:11;9.40;;;6.28;;
55015;SDS011;40919;43.236;21.590;2023-03-14T10:08:42;11.88;;;7.07;;
55015;SDS011;40919;43.236;21.590;2023-03-14T10:11:13;13.60;;;8.68;;
55015;SDS011;40919;43.236;21.590;2023-03-14T10:16:43;14.25;;;7.18;;
55015;SDS011;40919;43.236;21.590;2023-03-14T10:19:10;10.27;;;6.07;;
55015;SDS011;40919;43.236;21.590;2023-03-14T10:21:57;9.82;;;6.53;;
55015;SDS011;40919;43.236;21.590;2023-03-14T10:24:27;13.30;;;8.30;;
55015;SDS011;40919;43.236;21.590;2023-03-14T10:27:01;14.48;;;9.40;;
55015;SDS011;40919;43.236;21.590;2023-03-14T10:29:29;12.18;;;8.52;;
55015;SDS011;40919;43.236;21.590;2023-03-14T10:31:58;15.82;;;10.20;;
55015;SDS011;40919;43.236;21.590;2023-03-14T10:34:33;16.63;;;9.02;;
55015;SDS011;40919;43.236;21.590;2023-03-14T10:37:20;16.48;;;9.05;;
55015;SDS011;40919;43.236;21.590;2023-03-14T10:39:52;11.80;;;7.00;;
55015;SDS011;40919;43.236;21.590;2023-03-14T10:42:24;11.75;;;5.93;;
55015;SDS011;40919;43.236;21.590;2023-03-14T10:45:03;9.85;;;5.90;;
55015;SDS011;40919;43.236;21.590;2023-03-14T10:47:32;16.73;;;9.02;;
55015;SDS011;40919;43.236;21.590;2023-03-14T10:50:22;8.43;;;6.07;;
55015;SDS011;40919;43.236;21.590;2023-03-14T10:52:48;8.38;;;5.28;;
55015;SDS011;40919;43.236;21.590;2023-03-14T10:55:15;8.65;;;5.35;;
55015;SDS011;40919;43.236;21.590;2023-03-14T10:57:42;11.43;;;6.57;;
55015;SDS011;40919;43.236;21.590;2023-03-14T11:00:14;6.68;;;4.57;;
55015;SDS011;40919;43.236;21.590;2023-03-14T11:07:45;10.77;;;6.53;;
55015;SDS011;40919;43.236;21.590;2023-03-14T11:12:40;13.93;;;6.32;;
55015;SDS011;40919;43.236;21.590;2023-03-14T11:15:31;13.75;;;6.63;;
55015;SDS011;40919;43.236;21.590;2023-03-14T11:18:04;16.20;;;7.95;;
55015;SDS011;40919;43.236;21.590;2023-03-14T11:23:02;10.27;;;4.60;;
55015;SDS011;40919;43.236;21.590;2023-03-14T11:25:43;6.80;;;4.32;;
55015;SDS011;40919;43.236;21.590;2023-03-14T11:28:20;7.85;;;4.45;;
55015;SDS011;40919;43.236;21.590;2023-03-14T11:30:52;9.10;;;5.10;;
55015;SDS011;40919;43.236;21.590;2023-03-14T11:33:24;9.60;;;5.43;;
55015;SDS011;40919;43.236;21.590;2023-03-14T11:40:56;12.68;;;7.53;;
55015;SDS011;40919;43.236;21.590;2023-03-14T11:43:28;12.10;;;7.57;;
55015;SDS011;40919;43.236;21.590;2023-03-14T11:45:57;19.77;;;11.82;;
55015;SDS011;40919;43.236;21.590;2023-03-14T11:51:17;18.70;;;11.18;;
55015;SDS011;40919;43.236;21.590;2023-03-14T11:56:22;11.70;;;8.07;;
55015;SDS011;40919;43.236;21.590;2023-03-14T11:58:54;12.85;;;8.30;;
55015;SDS011;40919;43.236;21.590;2023-03-14T12:01:21;9.52;;;6.68;;
55015;SDS011;40919;43.236;21.590;2023-03-14T12:03:54;9.15;;;6.22;;
55015;SDS011;40919;43.236;21.590;2023-03-14T12:09:08;10.23;;;6.18;;
55015;SDS011;40919;43.236;21.590;2023-03-14T12:11:36;16.25;;;8.88;;
55015;SDS011;40919;43.236;21.590;2023-03-14T12:14:16;10.50;;;6.07;;
55015;SDS011;40919;43.236;21.590;2023-03-14T12:16:45;13.23;;;5.85;;
55015;SDS011;40919;43.236;21.590;2023-03-14T12:19:24;7.03;;;3.70;;
55015;SDS011;40919;43.236;21.590;2023-03-14T12:22:01;13.40;;;6.45;;
55015;SDS011;40919;43.236;21.590;2023-03-14T12:24:32;14.35;;;7.15;;
55015;SDS011;40919;43.236;21.590;2023-03-14T12:27:00;9.23;;;4.78;;
55015;SDS011;40919;43.236;21.590;2023-03-14T12:29:26;11.75;;;5.75;;
55015;SDS011;40919;43.236;21.590;2023-03-14T12:34:41;9.90;;;5.38;;
55015;SDS011;40919;43.236;21.590;2023-03-14T12:40:03;9.95;;;6.75;;
55015;SDS011;40919;43.236;21.590;2023-03-14T12:42:37;8.98;;;4.85;;
55015;SDS011;40919;43.236;21.590;2023-03-14T12:50:12;10.25;;;4.85;;
55015;SDS011;40919;43.236;21.590;2023-03-14T12:55:26;12.75;;;4.70;;
55015;SDS011;40919;43.236;21.590;2023-03-14T12:57:59;8.02;;;4.80;;
55015;SDS011;40919;43.236;21.590;2023-03-14T13:00:35;10.32;;;4.30;;
55015;SDS011;40919;43.236;21.590;2023-03-14T13:05:52;11.20;;;4.47;;
55015;SDS011;40919;43.236;21.590;2023-03-14T13:08:33;8.23;;;5.15;;
55015;SDS011;40919;43.236;21.590;2023-03-14T13:11:00;8.73;;;4.80;;
55015;SDS011;40919;43.236;21.590;2023-03-14T13:13:27;9.23;;;5.70;;
55015;SDS011;40919;43.236;21.590;2023-03-14T13:15:54;8.45;;;5.28;;
55015;SDS011;40919;43.236;21.590;2023-03-14T13:18:30;10.55;;;6.03;;
55015;SDS011;40919;43.236;21.590;2023-03-14T13:20:59;11.85;;;6.35;;
55015;SDS011;40919;43.236;21.590;2023-03-14T13:23:28;13.75;;;8.32;;
55015;SDS011;40919;43.236;21.590;2023-03-14T13:25:54;12.98;;;6.10;;
55015;SDS011;40919;43.236;21.590;2023-03-14T13:28:21;10.27;;;4.90;;
55015;SDS011;40919;43.236;21.590;2023-03-14T13:30:49;12.05;;;7.15;;
55015;SDS011;40919;43.236;21.590;2023-03-14T13:33:20;11.80;;;5.40;;
55015;SDS011;40919;43.236;21.590;2023-03-14T13:38:21;7.78;;;4.35;;
55015;SDS011;40919;43.236;21.590;2023-03-14T13:40:48;8.57;;;5.03;;
55015;SDS011;40919;43.236;21.590;2023-03-14T13:43:48;26.50;;;19.05;;
55015;SDS011;40919;43.236;21.590;2023-03-14T13:46:25;12.07;;;5.93;;
55015;SDS011;40919;43.236;21.590;2023-03-14T13:48:55;9.85;;;5.18;;
55015;SDS011;40919;43.236;21.590;2023-03-14T13:53:53;11.52;;;5.45;;
55015;SDS011;40919;43.236;21.590;2023-03-14T13:56:21;9.98;;;6.00;;
55015;SDS011;40919;43.236;21.590;2023-03-14T13:58:49;10.40;;;5.18;;
55015;SDS011;40919;43.236;21.590;2023-03-14T14:01:31;9.20;;;4.30;;
55015;SDS011;40919;43.236;21.590;2023-03-14T14:04:14;7.80;;;4.85;;
55015;SDS011;40919;43.236;21.590;2023-03-14T14:06:45;11.30;;;6.90;;
55015;SDS011;40919;43.236;21.590;2023-03-14T14:09:16;9.57;;;6.57;;
55015;SDS011;40919;43.236;21.590;2023-03-14T14:11:49;7.78;;;4.25;;
55015;SDS011;40919;43.236;21.590;2023-03-14T14:14:19;15.70;;;9.15;;
55015;SDS011;40919;43.236;21.590;2023-03-14T14:16:47;15.57;;;7.30;;
55015;SDS011;40919;43.236;21.590;2023-03-14T14:19:14;34.13;;;21.60;;
55015;SDS011;40919;43.236;21.590;2023-03-14T14:21:41;14.25;;;6.47;;
55015;SDS011;40919;43.236;21.590;2023-03-14T14:24:10;10.00;;;5.45;;
55015;SDS011;40919;43.236;21.590;2023-03-14T14:26:39;14.00;;;6.50;;
55015;SDS011;40919;43.236;21.590;2023-03-14T14:29:06;12.32;;;6.45;;
55015;SDS011;40919;43.236;21.590;2023-03-14T14:31:32;12.95;;;9.32;;
55015;SDS011;40919;43.236;21.590;2023-03-14T14:34:02;12.57;;;8.75;;
55015;SDS011;40919;43.236;21.590;2023-03-14T14:39:10;15.70;;;5.95;;
55015;SDS011;40919;43.236;21.590;2023-03-14T14:41:49;10.15;;;5.88;;
55015;SDS011;40919;43.236;21.590;2023-03-14T14:44:17;7.05;;;4.90;;
55015;SDS011;40919;43.236;21.590;2023-03-14T14:46:54;9.05;;;5.82;;
55015;SDS011;40919;43.236;21.590;2023-03-14T14:49:21;11.00;;;6.85;;
55015;SDS011;40919;43.236;21.590;2023-03-14T14:51:59;15.60;;;9.57;;
55015;SDS011;40919;43.236;21.590;2023-03-14T14:54:33;13.23;;;10.27;;
55015;SDS011;40919;43.236;21.590;2023-03-14T14:57:03;10.45;;;6.90;;
55015;SDS011;40919;43.236;21.590;2023-03-14T14:59:30;8.00;;;5.85;;
55015;SDS011;40919;43.236;21.590;2023-03-14T15:01:59;13.32;;;6.43;;
55015;SDS011;40919;43.236;21.590;2023-03-14T15:04:26;8.05;;;4.90;;
55015;SDS011;40919;43.236;21.590;2023-03-14T15:06:53;13.07;;;7.68;;
55015;SDS011;40919;43.236;21.590;2023-03-14T15:09:19;15.00;;;7.32;;
55015;SDS011;40919;43.236;21.590;2023-03-14T15:11:46;14.85;;;10.20;;
55015;SDS011;40919;43.236;21.590;2023-03-14T15:14:13;11.30;;;7.65;;
55015;SDS011;40919;43.236;21.590;2023-03-14T15:16:39;13.63;;;8.35;;
55015;SDS011;40919;43.236;21.590;2023-03-14T15:19:10;10.27;;;6.15;;
55015;SDS011;40919;43.236;21.590;2023-03-14T15:21:36;13.52;;;7.15;;
55015;SDS011;40919;43.236;21.590;2023-03-14T15:24:04;15.35;;;11.75;;